sensor_id;sensor_type;location;lat;lon;timestamp;P1;durP1;ratioP1;P2;durP2;ratioP2
15142;SDS011;7672;50.834;6.286;2023-11-22T00:01:58;11.03;;;9.27;;
15142;SDS011;7672;50.834;6.286;2023-11-22T00:04:25;11.40;;;8.83;;
15142;SDS011;7672;50.834;6.286;2023-11-22T00:06:52;12.73;;;10.13;;
15142;SDS011;7672;50.834;6.286;2023-11-22T00:09:19;12.90;;;9.47;;
15142;SDS011;7672;50.834;6.286;2023-11-22T00:11:49;13.80;;;9.50;;
15142;SDS011;7672;50.834;6.286;2023-11-22T00:14:18;13.77;;;9.73;;
15142;SDS011;7672;50.834;6.286;2023-11-22T00:16:45;16.43;;;10.23;;
15142;SDS011;7672;50.834;6.286;2023-11-22T00:19:12;15.40;;;10.43;;
15142;SDS011;7672;50.834;6.286;2023-11-22T00:21:41;14.57;;;10.07;;
15142;SDS011;7672;50.834;6.286;2023-11-22T00:24:08;12.83;;;9.93;;
15142;SDS011;7672;50.834;6.286;2023-11-22T00:26:35;16.20;;;9.73;;
15142;SDS011;7672;50.834;6.286;2023-11-22T00:29:02;19.07;;;10.10;;
15142;SDS011;7672;50.834;6.286;2023-11-22T00:31:29;14.17;;;10.57;;
15142;SDS011;7672;50.834;6.286;2023-11-22T00:33:56;12.47;;;9.98;;
15142;SDS011;7672;50.834;6.286;2023-11-22T00:36:23;16.63;;;10.40;;
15142;SDS011;7672;50.834;6.286;2023-11-22T00:38:51;13.10;;;10.13;;
15142;SDS011;7672;50.834;6.286;2023-11-22T00:41:18;13.93;;;10.07;;
15142;SDS011;7672;50.834;6.286;2023-11-22T00:43:45;17.17;;;10.43;;
15142;SDS011;7672;50.834;6.286;2023-11-22T00:46:12;16.70;;;10.50;;
15142;SDS011;7672;50.834;6.286;2023-11-22T00:48:39;16.67;;;10.17;;
15142;SDS011;7672;50.834;6.286;2023-11-22T00:51:06;18.77;;;10.47;;
15142;SDS011;7672;50.834;6.286;2023-11-22T00:53:35;13.83;;;10.50;;
15142;SDS011;7672;50.834;6.286;2023-11-22T00:56:05;14.47;;;9.60;;
15142;SDS011;7672;50.834;6.286;2023-11-22T00:58:32;14.93;;;10.67;;
15142;SDS011;7672;50.834;6.286;2023-11-22T01:01:00;14.27;;;10.23;;
15142;SDS011;7672;50.834;6.286;2023-11-22T01:03:27;14.83;;;10.87;;
15142;SDS011;7672;50.834;6.286;2023-11-22T01:05:54;20.57;;;10.40;;
15142;SDS011;7672;50.834;6.286;2023-11-22T01:08:21;14.13;;;10.10;;
15142;SDS011;7672;50.834;6.286;2023-11-22T01:10:48;14.50;;;11.17;;
15142;SDS011;7672;50.834;6.286;2023-11-22T01:13:15;15.67;;;11.17;;
15142;SDS011;7672;50.834;6.286;2023-11-22T01:15:42;15.73;;;10.20;;
15142;SDS011;7672;50.834;6.286;2023-11-22T01:18:10;14.27;;;10.80;;
15142;SDS011;7672;50.834;6.286;2023-11-22T01:20:38;16.83;;;11.37;;
15142;SDS011;7672;50.834;6.286;2023-11-22T01:23:05;15.43;;;11.57;;
15142;SDS011;7672;50.834;6.286;2023-11-22T01:25:31;16.23;;;11.40;;
15142;SDS011;7672;50.834;6.286;2023-11-22T01:27:59;16.33;;;12.37;;
15142;SDS011;7672;50.834;6.286;2023-11-22T01:30:27;16.60;;;11.77;;
15142;SDS011;7672;50.834;6.286;2023-11-22T01:32:55;22.10;;;12.63;;
15142;SDS011;7672;50.834;6.286;2023-11-22T01:35:22;18.03;;;12.00;;
15142;SDS011;7672;50.834;6.286;2023-11-22T01:37:49;17.70;;;12.17;;
15142;SDS011;7672;50.834;6.286;2023-11-22T01:40:17;19.13;;;12.00;;
15142;SDS011;7672;50.834;6.286;2023-11-22T01:42:45;18.70;;;12.17;;
15142;SDS011;7672;50.834;6.286;2023-11-22T01:45:13;18.67;;;12.13;;
15142;SDS011;7672;50.834;6.286;2023-11-22T01:47:41;18.47;;;11.40;;
15142;SDS011;7672;50.834;6.286;2023-11-22T01:50:10;18.07;;;12.77;;
15142;SDS011;7672;50.834;6.286;2023-11-22T01:52:37;19.37;;;12.77;;
15142;SDS011;7672;50.834;6.286;2023-11-22T01:55:05;18.03;;;12.37;;
15142;SDS011;7672;50.834;6.286;2023-11-22T01:57:35;18.43;;;13.50;;
15142;SDS011;7672;50.834;6.286;2023-11-22T02:00:04;18.47;;;11.77;;
15142;SDS011;7672;50.834;6.286;2023-11-22T02:02:40;17.50;;;12.63;;
15142;SDS011;7672;50.834;6.286;2023-11-22T02:05:09;16.87;;;12.30;;
15142;SDS011;7672;50.834;6.286;2023-11-22T02:07:36;17.63;;;12.87;;
15142;SDS011;7672;50.834;6.286;2023-11-22T02:10:05;18.33;;;12.77;;
15142;SDS011;7672;50.834;6.286;2023-11-22T02:12:34;18.00;;;12.23;;
15142;SDS011;7672;50.834;6.286;2023-11-22T02:15:02;21.13;;;13.73;;
15142;SDS011;7672;50.834;6.286;2023-11-22T02:17:31;20.43;;;13.23;;
15142;SDS011;7672;50.834;6.286;2023-11-22T02:19:58;17.93;;;12.57;;
15142;SDS011;7672;50.834;6.286;2023-11-22T02:22:25;19.93;;;13.07;;
15142;SDS011;7672;50.834;6.286;2023-11-22T02:24:51;16.00;;;12.03;;
15142;SDS011;7672;50.834;6.286;2023-11-22T02:27:18;16.77;;;12.33;;
15142;SDS011;7672;50.834;6.286;2023-11-22T02:29:46;20.57;;;13.37;;
15142;SDS011;7672;50.834;6.286;2023-11-22T02:32:13;19.53;;;12.60;;
15142;SDS011;7672;50.834;6.286;2023-11-22T02:34:40;16.67;;;11.43;;
15142;SDS011;7672;50.834;6.286;2023-11-22T02:37:06;16.27;;;11.60;;
15142;SDS011;7672;50.834;6.286;2023-11-22T02:39:45;17.37;;;12.30;;
15142;SDS011;7672;50.834;6.286;2023-11-22T02:42:22;18.23;;;11.63;;
15142;SDS011;7672;50.834;6.286;2023-11-22T02:44:49;18.73;;;13.13;;
15142;SDS011;7672;50.834;6.286;2023-11-22T02:47:16;19.27;;;11.67;;
15142;SDS011;7672;50.834;6.286;2023-11-22T02:49:43;15.63;;;12.23;;
15142;SDS011;7672;50.834;6.286;2023-11-22T02:52:10;14.13;;;11.23;;
15142;SDS011;7672;50.834;6.286;2023-11-22T02:54:43;16.27;;;11.53;;
15142;SDS011;7672;50.834;6.286;2023-11-22T02:57:12;17.97;;;12.47;;
15142;SDS011;7672;50.834;6.286;2023-11-22T02:59:42;18.13;;;11.63;;
15142;SDS011;7672;50.834;6.286;2023-11-22T03:02:10;17.30;;;11.83;;
15142;SDS011;7672;50.834;6.286;2023-11-22T03:04:38;14.60;;;11.23;;
15142;SDS011;7672;50.834;6.286;2023-11-22T03:07:04;17.30;;;10.83;;
15142;SDS011;7672;50.834;6.286;2023-11-22T03:09:34;19.00;;;11.80;;
15142;SDS011;7672;50.834;6.286;2023-11-22T03:12:01;13.33;;;10.67;;
15142;SDS011;7672;50.834;6.286;2023-11-22T03:14:29;14.80;;;11.33;;
15142;SDS011;7672;50.834;6.286;2023-11-22T03:16:56;14.57;;;10.67;;
15142;SDS011;7672;50.834;6.286;2023-11-22T03:19:24;16.33;;;11.47;;
15142;SDS011;7672;50.834;6.286;2023-11-22T03:21:51;16.57;;;12.00;;
15142;SDS011;7672;50.834;6.286;2023-11-22T03:24:18;15.50;;;10.90;;
15142;SDS011;7672;50.834;6.286;2023-11-22T03:26:45;14.97;;;10.57;;
15142;SDS011;7672;50.834;6.286;2023-11-22T03:29:13;15.60;;;11.30;;
15142;SDS011;7672;50.834;6.286;2023-11-22T03:31:42;16.10;;;11.00;;
15142;SDS011;7672;50.834;6.286;2023-11-22T03:34:09;14.87;;;11.13;;
15142;SDS011;7672;50.834;6.286;2023-11-22T03:36:36;14.27;;;9.90;;
15142;SDS011;7672;50.834;6.286;2023-11-22T03:39:04;19.57;;;11.70;;
15142;SDS011;7672;50.834;6.286;2023-11-22T03:41:32;15.03;;;10.73;;
15142;SDS011;7672;50.834;6.286;2023-11-22T03:43:59;18.40;;;12.17;;
15142;SDS011;7672;50.834;6.286;2023-11-22T03:46:27;15.10;;;10.40;;
15142;SDS011;7672;50.834;6.286;2023-11-22T03:48:54;13.47;;;10.83;;
15142;SDS011;7672;50.834;6.286;2023-11-22T03:51:21;16.10;;;12.03;;
15142;SDS011;7672;50.834;6.286;2023-11-22T03:53:48;18.60;;;11.97;;
15142;SDS011;7672;50.834;6.286;2023-11-22T03:56:15;15.63;;;12.67;;
15142;SDS011;7672;50.834;6.286;2023-11-22T03:58:42;18.13;;;12.03;;
15142;SDS011;7672;50.834;6.286;2023-11-22T04:01:10;17.20;;;12.13;;
15142;SDS011;7672;50.834;6.286;2023-11-22T04:03:37;14.33;;;11.43;;
15142;SDS011;7672;50.834;6.286;2023-11-22T04:06:04;16.23;;;11.80;;
15142;SDS011;7672;50.834;6.286;2023-11-22T04:08:31;16.07;;;11.33;;
15142;SDS011;7672;50.834;6.286;2023-11-22T04:10:58;16.53;;;12.33;;
15142;SDS011;7672;50.834;6.286;2023-11-22T04:13:25;16.00;;;12.07;;
15142;SDS011;7672;50.834;6.286;2023-11-22T04:15:53;19.80;;;12.00;;
15142;SDS011;7672;50.834;6.286;2023-11-22T04:18:20;17.67;;;12.20;;
15142;SDS011;7672;50.834;6.286;2023-11-22T04:20:47;18.33;;;12.37;;
15142;SDS011;7672;50.834;6.286;2023-11-22T04:23:14;15.43;;;11.73;;
15142;SDS011;7672;50.834;6.286;2023-11-22T04:25:42;17.63;;;12.70;;
15142;SDS011;7672;50.834;6.286;2023-11-22T04:28:09;17.10;;;11.97;;
15142;SDS011;7672;50.834;6.286;2023-11-22T04:30:36;19.10;;;12.40;;
15142;SDS011;7672;50.834;6.286;2023-11-22T04:33:03;19.53;;;11.33;;
15142;SDS011;7672;50.834;6.286;2023-11-22T04:35:30;16.67;;;11.83;;
15142;SDS011;7672;50.834;6.286;2023-11-22T04:38:00;22.03;;;13.40;;
15142;SDS011;7672;50.834;6.286;2023-11-22T04:40:27;16.03;;;11.87;;
15142;SDS011;7672;50.834;6.286;2023-11-22T04:42:54;16.47;;;12.07;;
15142;SDS011;7672;50.834;6.286;2023-11-22T04:45:21;18.87;;;12.77;;
15142;SDS011;7672;50.834;6.286;2023-11-22T04:47:48;15.90;;;12.17;;
15142;SDS011;7672;50.834;6.286;2023-11-22T04:50:15;20.63;;;13.90;;
15142;SDS011;7672;50.834;6.286;2023-11-22T04:52:42;21.40;;;13.93;;
15142;SDS011;7672;50.834;6.286;2023-11-22T04:55:09;18.07;;;13.50;;
15142;SDS011;7672;50.834;6.286;2023-11-22T04:57:36;20.13;;;14.53;;
15142;SDS011;7672;50.834;6.286;2023-11-22T05:00:03;25.17;;;14.27;;
15142;SDS011;7672;50.834;6.286;2023-11-22T05:02:34;21.93;;;14.37;;
15142;SDS011;7672;50.834;6.286;2023-11-22T05:05:01;25.53;;;15.90;;
15142;SDS011;7672;50.834;6.286;2023-11-22T05:07:28;21.97;;;15.70;;
15142;SDS011;7672;50.834;6.286;2023-11-22T05:09:55;23.27;;;17.07;;
15142;SDS011;7672;50.834;6.286;2023-11-22T05:12:22;26.90;;;15.80;;
15142;SDS011;7672;50.834;6.286;2023-11-22T05:14:49;23.77;;;15.27;;
15142;SDS011;7672;50.834;6.286;2023-11-22T05:17:16;22.63;;;15.23;;
15142;SDS011;7672;50.834;6.286;2023-11-22T05:19:43;21.40;;;14.90;;
15142;SDS011;7672;50.834;6.286;2023-11-22T05:22:10;21.30;;;15.47;;
15142;SDS011;7672;50.834;6.286;2023-11-22T05:24:37;23.63;;;16.07;;
15142;SDS011;7672;50.834;6.286;2023-11-22T05:27:08;22.33;;;16.43;;
15142;SDS011;7672;50.834;6.286;2023-11-22T05:29:35;24.80;;;16.73;;
15142;SDS011;7672;50.834;6.286;2023-11-22T05:32:12;26.93;;;17.37;;
15142;SDS011;7672;50.834;6.286;2023-11-22T05:34:39;31.97;;;17.80;;
15142;SDS011;7672;50.834;6.286;2023-11-22T05:37:07;26.00;;;16.90;;
15142;SDS011;7672;50.834;6.286;2023-11-22T05:39:34;26.90;;;16.47;;
15142;SDS011;7672;50.834;6.286;2023-11-22T05:42:01;26.53;;;17.23;;
15142;SDS011;7672;50.834;6.286;2023-11-22T05:44:29;28.17;;;17.60;;
15142;SDS011;7672;50.834;6.286;2023-11-22T05:46:56;26.83;;;17.30;;
15142;SDS011;7672;50.834;6.286;2023-11-22T05:49:23;25.77;;;18.17;;
15142;SDS011;7672;50.834;6.286;2023-11-22T05:51:50;27.87;;;17.83;;
15142;SDS011;7672;50.834;6.286;2023-11-22T05:54:17;29.07;;;17.57;;
15142;SDS011;7672;50.834;6.286;2023-11-22T05:56:44;31.33;;;19.40;;
15142;SDS011;7672;50.834;6.286;2023-11-22T05:59:10;33.70;;;18.90;;
15142;SDS011;7672;50.834;6.286;2023-11-22T06:01:37;29.53;;;18.43;;
15142;SDS011;7672;50.834;6.286;2023-11-22T06:04:04;30.77;;;18.23;;
15142;SDS011;7672;50.834;6.286;2023-11-22T06:06:31;32.40;;;18.63;;
15142;SDS011;7672;50.834;6.286;2023-11-22T06:08:58;29.90;;;18.80;;
15142;SDS011;7672;50.834;6.286;2023-11-22T06:11:26;28.63;;;18.93;;
15142;SDS011;7672;50.834;6.286;2023-11-22T06:13:53;32.67;;;20.23;;
15142;SDS011;7672;50.834;6.286;2023-11-22T06:16:20;33.33;;;20.30;;
15142;SDS011;7672;50.834;6.286;2023-11-22T06:18:47;29.87;;;19.87;;
15142;SDS011;7672;50.834;6.286;2023-11-22T06:21:14;30.70;;;18.70;;
15142;SDS011;7672;50.834;6.286;2023-11-22T06:23:41;32.57;;;19.83;;
15142;SDS011;7672;50.834;6.286;2023-11-22T06:26:08;30.23;;;19.20;;
15142;SDS011;7672;50.834;6.286;2023-11-22T06:28:35;37.17;;;19.93;;
15142;SDS011;7672;50.834;6.286;2023-11-22T06:31:02;32.20;;;20.30;;
15142;SDS011;7672;50.834;6.286;2023-11-22T06:33:29;32.97;;;20.77;;
15142;SDS011;7672;50.834;6.286;2023-11-22T06:35:56;31.83;;;18.93;;
15142;SDS011;7672;50.834;6.286;2023-11-22T06:38:23;31.53;;;18.17;;
15142;SDS011;7672;50.834;6.286;2023-11-22T06:40:50;32.50;;;19.37;;
15142;SDS011;7672;50.834;6.286;2023-11-22T06:43:17;31.43;;;19.50;;
15142;SDS011;7672;50.834;6.286;2023-11-22T06:45:44;33.40;;;19.60;;
15142;SDS011;7672;50.834;6.286;2023-11-22T06:48:11;29.63;;;18.33;;
15142;SDS011;7672;50.834;6.286;2023-11-22T06:50:38;35.60;;;20.50;;
15142;SDS011;7672;50.834;6.286;2023-11-22T06:53:06;30.03;;;19.13;;
15142;SDS011;7672;50.834;6.286;2023-11-22T06:55:33;30.67;;;19.47;;
15142;SDS011;7672;50.834;6.286;2023-11-22T06:58:00;33.10;;;20.67;;
15142;SDS011;7672;50.834;6.286;2023-11-22T07:00:26;34.07;;;19.73;;
15142;SDS011;7672;50.834;6.286;2023-11-22T07:02:55;32.10;;;19.50;;
15142;SDS011;7672;50.834;6.286;2023-11-22T07:05:22;31.50;;;19.13;;
15142;SDS011;7672;50.834;6.286;2023-11-22T07:07:50;30.17;;;18.50;;
15142;SDS011;7672;50.834;6.286;2023-11-22T07:10:17;32.73;;;19.57;;
15142;SDS011;7672;50.834;6.286;2023-11-22T07:12:47;27.83;;;17.83;;
15142;SDS011;7672;50.834;6.286;2023-11-22T07:15:14;31.73;;;19.63;;
15142;SDS011;7672;50.834;6.286;2023-11-22T07:17:41;31.53;;;19.10;;
15142;SDS011;7672;50.834;6.286;2023-11-22T07:20:08;31.57;;;19.13;;
15142;SDS011;7672;50.834;6.286;2023-11-22T07:22:42;28.53;;;17.20;;
15142;SDS011;7672;50.834;6.286;2023-11-22T07:25:09;31.17;;;19.00;;
15142;SDS011;7672;50.834;6.286;2023-11-22T07:27:45;34.30;;;19.07;;
15142;SDS011;7672;50.834;6.286;2023-11-22T07:30:13;29.13;;;18.17;;
15142;SDS011;7672;50.834;6.286;2023-11-22T07:32:41;35.20;;;20.13;;
15142;SDS011;7672;50.834;6.286;2023-11-22T07:35:08;29.80;;;18.73;;
15142;SDS011;7672;50.834;6.286;2023-11-22T07:37:35;31.63;;;19.90;;
15142;SDS011;7672;50.834;6.286;2023-11-22T07:40:02;29.57;;;19.83;;
15142;SDS011;7672;50.834;6.286;2023-11-22T07:42:30;29.27;;;19.00;;
15142;SDS011;7672;50.834;6.286;2023-11-22T07:44:57;30.17;;;18.20;;
15142;SDS011;7672;50.834;6.286;2023-11-22T07:47:23;26.97;;;17.37;;
15142;SDS011;7672;50.834;6.286;2023-11-22T07:49:51;32.30;;;19.33;;
15142;SDS011;7672;50.834;6.286;2023-11-22T07:52:18;29.30;;;17.10;;
15142;SDS011;7672;50.834;6.286;2023-11-22T07:54:45;32.30;;;18.70;;
15142;SDS011;7672;50.834;6.286;2023-11-22T07:57:13;29.30;;;18.83;;
15142;SDS011;7672;50.834;6.286;2023-11-22T07:59:40;30.77;;;19.20;;
15142;SDS011;7672;50.834;6.286;2023-11-22T08:02:08;28.90;;;18.20;;
15142;SDS011;7672;50.834;6.286;2023-11-22T08:04:38;29.53;;;18.97;;
15142;SDS011;7672;50.834;6.286;2023-11-22T08:07:05;30.17;;;18.73;;
15142;SDS011;7672;50.834;6.286;2023-11-22T08:09:32;29.53;;;17.97;;
15142;SDS011;7672;50.834;6.286;2023-11-22T08:11:59;32.83;;;20.20;;
15142;SDS011;7672;50.834;6.286;2023-11-22T08:14:31;29.37;;;19.40;;
15142;SDS011;7672;50.834;6.286;2023-11-22T08:16:59;32.03;;;19.40;;
15142;SDS011;7672;50.834;6.286;2023-11-22T08:19:26;31.53;;;19.17;;
15142;SDS011;7672;50.834;6.286;2023-11-22T08:21:54;30.50;;;19.50;;
15142;SDS011;7672;50.834;6.286;2023-11-22T08:24:20;32.70;;;20.67;;
15142;SDS011;7672;50.834;6.286;2023-11-22T08:26:48;33.30;;;19.13;;
15142;SDS011;7672;50.834;6.286;2023-11-22T08:29:15;35.60;;;21.10;;
15142;SDS011;7672;50.834;6.286;2023-11-22T08:31:42;33.13;;;20.07;;
15142;SDS011;7672;50.834;6.286;2023-11-22T08:34:09;33.60;;;20.27;;
15142;SDS011;7672;50.834;6.286;2023-11-22T08:36:37;32.30;;;19.97;;
15142;SDS011;7672;50.834;6.286;2023-11-22T08:39:05;30.50;;;18.53;;
15142;SDS011;7672;50.834;6.286;2023-11-22T08:41:32;37.80;;;20.40;;
15142;SDS011;7672;50.834;6.286;2023-11-22T08:44:00;33.30;;;21.67;;
15142;SDS011;7672;50.834;6.286;2023-11-22T08:46:27;32.03;;;19.47;;
15142;SDS011;7672;50.834;6.286;2023-11-22T08:48:54;29.50;;;18.27;;
15142;SDS011;7672;50.834;6.286;2023-11-22T08:51:22;31.20;;;18.67;;
15142;SDS011;7672;50.834;6.286;2023-11-22T08:53:49;30.10;;;18.93;;
15142;SDS011;7672;50.834;6.286;2023-11-22T08:56:17;34.27;;;20.70;;
15142;SDS011;7672;50.834;6.286;2023-11-22T08:58:44;26.00;;;17.30;;
15142;SDS011;7672;50.834;6.286;2023-11-22T09:01:11;30.77;;;18.73;;
15142;SDS011;7672;50.834;6.286;2023-11-22T09:03:40;29.63;;;17.77;;
15142;SDS011;7672;50.834;6.286;2023-11-22T09:06:08;25.87;;;17.70;;
15142;SDS011;7672;50.834;6.286;2023-11-22T09:08:34;22.37;;;16.20;;
15142;SDS011;7672;50.834;6.286;2023-11-22T09:11:02;25.60;;;16.83;;
15142;SDS011;7672;50.834;6.286;2023-11-22T09:13:33;22.87;;;15.13;;
15142;SDS011;7672;50.834;6.286;2023-11-22T09:16:01;21.37;;;15.60;;
15142;SDS011;7672;50.834;6.286;2023-11-22T09:18:31;24.97;;;16.53;;
15142;SDS011;7672;50.834;6.286;2023-11-22T09:20:59;26.27;;;14.97;;
15142;SDS011;7672;50.834;6.286;2023-11-22T09:23:26;26.50;;;14.60;;
15142;SDS011;7672;50.834;6.286;2023-11-22T09:25:53;22.13;;;14.70;;
15142;SDS011;7672;50.834;6.286;2023-11-22T09:28:20;20.97;;;15.27;;
15142;SDS011;7672;50.834;6.286;2023-11-22T09:30:47;22.00;;;15.30;;
15142;SDS011;7672;50.834;6.286;2023-11-22T09:33:15;19.93;;;14.20;;
15142;SDS011;7672;50.834;6.286;2023-11-22T09:35:43;19.07;;;13.17;;
15142;SDS011;7672;50.834;6.286;2023-11-22T09:38:12;24.03;;;15.37;;
15142;SDS011;7672;50.834;6.286;2023-11-22T09:43:07;23.57;;;15.40;;
15142;SDS011;7672;50.834;6.286;2023-11-22T09:45:34;21.43;;;14.83;;
15142;SDS011;7672;50.834;6.286;2023-11-22T09:48:02;19.80;;;15.10;;
15142;SDS011;7672;50.834;6.286;2023-11-22T09:50:39;21.90;;;14.87;;
15142;SDS011;7672;50.834;6.286;2023-11-22T09:56:03;19.23;;;14.57;;
15142;SDS011;7672;50.834;6.286;2023-11-22T09:58:33;24.23;;;14.40;;
15142;SDS011;7672;50.834;6.286;2023-11-22T10:01:01;20.10;;;15.23;;
15142;SDS011;7672;50.834;6.286;2023-11-22T10:03:29;22.77;;;15.10;;
15142;SDS011;7672;50.834;6.286;2023-11-22T10:05:57;22.43;;;14.13;;
15142;SDS011;7672;50.834;6.286;2023-11-22T10:08:25;19.03;;;14.87;;
15142;SDS011;7672;50.834;6.286;2023-11-22T10:10:57;17.10;;;13.27;;
15142;SDS011;7672;50.834;6.286;2023-11-22T10:13:25;18.57;;;13.90;;
15142;SDS011;7672;50.834;6.286;2023-11-22T10:15:53;23.40;;;13.73;;
15142;SDS011;7672;50.834;6.286;2023-11-22T10:18:20;19.40;;;14.13;;
15142;SDS011;7672;50.834;6.286;2023-11-22T10:20:48;20.53;;;14.40;;
15142;SDS011;7672;50.834;6.286;2023-11-22T10:23:16;18.87;;;14.03;;
15142;SDS011;7672;50.834;6.286;2023-11-22T10:25:46;17.10;;;13.93;;
15142;SDS011;7672;50.834;6.286;2023-11-22T10:28:16;15.93;;;12.93;;
15142;SDS011;7672;50.834;6.286;2023-11-22T10:30:48;19.57;;;13.83;;
15142;SDS011;7672;50.834;6.286;2023-11-22T10:33:17;16.80;;;13.10;;
15142;SDS011;7672;50.834;6.286;2023-11-22T10:35:46;18.50;;;12.77;;
15142;SDS011;7672;50.834;6.286;2023-11-22T10:38:15;16.10;;;13.90;;
15142;SDS011;7672;50.834;6.286;2023-11-22T10:40:42;16.37;;;12.53;;
15142;SDS011;7672;50.834;6.286;2023-11-22T10:43:12;18.03;;;14.17;;
15142;SDS011;7672;50.834;6.286;2023-11-22T10:45:40;18.10;;;14.47;;
15142;SDS011;7672;50.834;6.286;2023-11-22T10:48:13;15.00;;;13.17;;
15142;SDS011;7672;50.834;6.286;2023-11-22T10:50:44;17.03;;;12.83;;
15142;SDS011;7672;50.834;6.286;2023-11-22T10:53:12;16.07;;;12.73;;
15142;SDS011;7672;50.834;6.286;2023-11-22T10:55:42;16.07;;;13.90;;
15142;SDS011;7672;50.834;6.286;2023-11-22T10:58:13;16.27;;;13.50;;
15142;SDS011;7672;50.834;6.286;2023-11-22T11:00:41;17.20;;;14.17;;
15142;SDS011;7672;50.834;6.286;2023-11-22T11:03:14;15.33;;;12.30;;
15142;SDS011;7672;50.834;6.286;2023-11-22T11:06:05;16.23;;;12.83;;
15142;SDS011;7672;50.834;6.286;2023-11-22T11:08:34;17.23;;;13.27;;
15142;SDS011;7672;50.834;6.286;2023-11-22T11:11:04;14.50;;;12.07;;
15142;SDS011;7672;50.834;6.286;2023-11-22T11:13:32;14.63;;;12.30;;
15142;SDS011;7672;50.834;6.286;2023-11-22T11:15:59;17.33;;;15.63;;
15142;SDS011;7672;50.834;6.286;2023-11-22T11:18:27;15.70;;;14.20;;
15142;SDS011;7672;50.834;6.286;2023-11-22T11:20:55;17.17;;;15.43;;
15142;SDS011;7672;50.834;6.286;2023-11-22T11:23:23;17.13;;;15.33;;
15142;SDS011;7672;50.834;6.286;2023-11-22T11:25:58;15.00;;;13.50;;
15142;SDS011;7672;50.834;6.286;2023-11-22T11:28:44;16.47;;;14.53;;
15142;SDS011;7672;50.834;6.286;2023-11-22T11:31:14;16.73;;;15.07;;
15142;SDS011;7672;50.834;6.286;2023-11-22T11:38:52;16.57;;;14.27;;
15142;SDS011;7672;50.834;6.286;2023-11-22T11:41:33;15.40;;;13.80;;
15142;SDS011;7672;50.834;6.286;2023-11-22T11:44:03;15.10;;;13.60;;
15142;SDS011;7672;50.834;6.286;2023-11-22T11:46:33;16.40;;;14.80;;
15142;SDS011;7672;50.834;6.286;2023-11-22T11:49:00;14.47;;;12.97;;
15142;SDS011;7672;50.834;6.286;2023-11-22T11:51:33;17.17;;;13.50;;
15142;SDS011;7672;50.834;6.286;2023-11-22T11:54:01;14.23;;;12.73;;
15142;SDS011;7672;50.834;6.286;2023-11-22T11:56:28;14.03;;;12.63;;
15142;SDS011;7672;50.834;6.286;2023-11-22T11:58:56;13.07;;;11.77;;
15142;SDS011;7672;50.834;6.286;2023-11-22T12:01:29;12.67;;;11.40;;
15142;SDS011;7672;50.834;6.286;2023-11-22T12:04:01;14.73;;;12.87;;
15142;SDS011;7672;50.834;6.286;2023-11-22T12:06:29;13.40;;;12.00;;
15142;SDS011;7672;50.834;6.286;2023-11-22T12:09:00;12.90;;;11.60;;
15142;SDS011;7672;50.834;6.286;2023-11-22T12:11:27;13.30;;;12.00;;
15142;SDS011;7672;50.834;6.286;2023-11-22T12:13:56;13.53;;;12.17;;
15142;SDS011;7672;50.834;6.286;2023-11-22T12:16:25;12.67;;;10.93;;
15142;SDS011;7672;50.834;6.286;2023-11-22T12:18:53;11.60;;;10.40;;
15142;SDS011;7672;50.834;6.286;2023-11-22T12:21:21;12.57;;;11.30;;
15142;SDS011;7672;50.834;6.286;2023-11-22T12:23:49;12.13;;;10.83;;
15142;SDS011;7672;50.834;6.286;2023-11-22T12:26:20;12.17;;;10.80;;
15142;SDS011;7672;50.834;6.286;2023-11-22T12:28:47;12.63;;;11.33;;
15142;SDS011;7672;50.834;6.286;2023-11-22T12:31:29;11.60;;;10.40;;
15142;SDS011;7672;50.834;6.286;2023-11-22T12:34:02;10.00;;;7.83;;
15142;SDS011;7672;50.834;6.286;2023-11-22T12:36:30;9.97;;;8.60;;
15142;SDS011;7672;50.834;6.286;2023-11-22T12:38:57;9.23;;;7.53;;
15142;SDS011;7672;50.834;6.286;2023-11-22T12:41:30;9.20;;;7.17;;
15142;SDS011;7672;50.834;6.286;2023-11-22T12:44:04;13.63;;;7.30;;
15142;SDS011;7672;50.834;6.286;2023-11-22T12:49:44;6.03;;;5.07;;
15142;SDS011;7672;50.834;6.286;2023-11-22T12:52:12;5.60;;;4.03;;
15142;SDS011;7672;50.834;6.286;2023-11-22T12:54:39;4.30;;;3.73;;
15142;SDS011;7672;50.834;6.286;2023-11-22T12:57:10;5.43;;;3.73;;
15142;SDS011;7672;50.834;6.286;2023-11-22T12:59:39;5.23;;;4.23;;
15142;SDS011;7672;50.834;6.286;2023-11-22T13:02:07;5.77;;;4.17;;
15142;SDS011;7672;50.834;6.286;2023-11-22T13:04:34;7.20;;;4.03;;
15142;SDS011;7672;50.834;6.286;2023-11-22T13:07:02;6.93;;;5.60;;
15142;SDS011;7672;50.834;6.286;2023-11-22T13:09:29;6.70;;;4.83;;
15142;SDS011;7672;50.834;6.286;2023-11-22T13:11:58;8.20;;;5.03;;
15142;SDS011;7672;50.834;6.286;2023-11-22T13:14:25;7.97;;;5.47;;
15142;SDS011;7672;50.834;6.286;2023-11-22T13:16:56;4.83;;;3.80;;
15142;SDS011;7672;50.834;6.286;2023-11-22T13:19:23;4.93;;;3.67;;
15142;SDS011;7672;50.834;6.286;2023-11-22T13:21:51;2.63;;;2.40;;
15142;SDS011;7672;50.834;6.286;2023-11-22T13:24:18;2.07;;;1.30;;
15142;SDS011;7672;50.834;6.286;2023-11-22T13:26:47;4.27;;;2.73;;
15142;SDS011;7672;50.834;6.286;2023-11-22T13:29:14;1.77;;;1.60;;
15142;SDS011;7672;50.834;6.286;2023-11-22T13:31:41;3.47;;;1.53;;
15142;SDS011;7672;50.834;6.286;2023-11-22T13:34:08;2.67;;;2.30;;
15142;SDS011;7672;50.834;6.286;2023-11-22T13:36:37;5.20;;;3.00;;
15142;SDS011;7672;50.834;6.286;2023-11-22T13:39:04;4.90;;;3.00;;
15142;SDS011;7672;50.834;6.286;2023-11-22T13:41:31;4.63;;;3.73;;
15142;SDS011;7672;50.834;6.286;2023-11-22T13:43:59;6.90;;;4.60;;
15142;SDS011;7672;50.834;6.286;2023-11-22T13:46:27;7.10;;;4.60;;
15142;SDS011;7672;50.834;6.286;2023-11-22T13:48:54;9.77;;;7.23;;
15142;SDS011;7672;50.834;6.286;2023-11-22T13:51:21;11.97;;;7.13;;
15142;SDS011;7672;50.834;6.286;2023-11-22T13:53:50;15.23;;;7.93;;
15142;SDS011;7672;50.834;6.286;2023-11-22T13:56:19;11.97;;;8.23;;
15142;SDS011;7672;50.834;6.286;2023-11-22T13:58:46;12.20;;;8.27;;
15142;SDS011;7672;50.834;6.286;2023-11-22T14:01:13;10.80;;;7.57;;
15142;SDS011;7672;50.834;6.286;2023-11-22T14:03:47;9.83;;;7.37;;
15142;SDS011;7672;50.834;6.286;2023-11-22T14:06:14;9.93;;;7.23;;
15142;SDS011;7672;50.834;6.286;2023-11-22T14:08:43;11.33;;;7.67;;
15142;SDS011;7672;50.834;6.286;2023-11-22T14:11:11;10.00;;;7.20;;
15142;SDS011;7672;50.834;6.286;2023-11-22T14:13:39;11.90;;;8.07;;
15142;SDS011;7672;50.834;6.286;2023-11-22T14:16:06;16.97;;;8.87;;
15142;SDS011;7672;50.834;6.286;2023-11-22T14:18:35;13.00;;;7.10;;
15142;SDS011;7672;50.834;6.286;2023-11-22T14:21:02;11.23;;;8.37;;
15142;SDS011;7672;50.834;6.286;2023-11-22T14:23:30;9.70;;;7.20;;
15142;SDS011;7672;50.834;6.286;2023-11-22T14:25:57;12.80;;;8.20;;
15142;SDS011;7672;50.834;6.286;2023-11-22T14:28:24;10.90;;;6.83;;
15142;SDS011;7672;50.834;6.286;2023-11-22T14:30:51;9.50;;;7.10;;
15142;SDS011;7672;50.834;6.286;2023-11-22T14:33:21;7.93;;;6.30;;
15142;SDS011;7672;50.834;6.286;2023-11-22T14:35:48;9.60;;;6.87;;
15142;SDS011;7672;50.834;6.286;2023-11-22T14:38:15;8.10;;;6.87;;
15142;SDS011;7672;50.834;6.286;2023-11-22T14:40:44;10.07;;;7.17;;
15142;SDS011;7672;50.834;6.286;2023-11-22T14:43:11;12.60;;;8.73;;
15142;SDS011;7672;50.834;6.286;2023-11-22T14:45:38;12.73;;;8.67;;
15142;SDS011;7672;50.834;6.286;2023-11-22T14:48:06;10.93;;;7.70;;
15142;SDS011;7672;50.834;6.286;2023-11-22T14:50:35;10.23;;;7.60;;
15142;SDS011;7672;50.834;6.286;2023-11-22T14:53:02;12.87;;;8.27;;
15142;SDS011;7672;50.834;6.286;2023-11-22T14:55:29;13.03;;;7.90;;
15142;SDS011;7672;50.834;6.286;2023-11-22T14:57:56;12.40;;;8.50;;